sensor_id;sensor_type;location;lat;lon;timestamp;pressure;altitude;pressure_sealevel;temperature;humidity
65394;BME280;52002;49.760;6.512;2022-09-09T00:02:21;99395.62;;;16.99;70.42
65394;BME280;52002;49.760;6.512;2022-09-09T00:05:09;99395.33;;;16.94;70.18
65394;BME280;52002;49.760;6.512;2022-09-09T00:07:52;99384.63;;;16.90;70.33
65394;BME280;52002;49.760;6.512;2022-09-09T00:10:30;99380.20;;;16.82;70.29
65394;BME280;52002;49.760;6.512;2022-09-09T00:13:16;99367.92;;;16.79;70.57
65394;BME280;52002;49.760;6.512;2022-09-09T00:19:15;99373.96;;;16.81;70.83
65394;BME280;52002;49.760;6.512;2022-09-09T00:24:46;99378.27;;;16.87;70.72
65394;BME280;52002;49.760;6.512;2022-09-09T00:27:31;99374.46;;;16.92;70.59
65394;BME280;52002;49.760;6.512;2022-09-09T00:32:43;99378.39;;;16.89;70.28
65394;BME280;52002;49.760;6.512;2022-09-09T00:37:42;99386.91;;;16.93;70.71
65394;BME280;52002;49.760;6.512;2022-09-09T00:40:25;99397.30;;;17.00;70.67
65394;BME280;52002;49.760;6.512;2022-09-09T00:43:43;99397.67;;;17.08;70.64
65394;BME280;52002;49.760;6.512;2022-09-09T00:45:52;99397.08;;;17.12;70.61
65394;BME280;52002;49.760;6.512;2022-09-09T00:48:22;99403.44;;;17.16;70.57
65394;BME280;52002;49.760;6.512;2022-09-09T00:53:41;99398.80;;;17.20;70.69
65394;BME280;52002;49.760;6.512;2022-09-09T00:56:22;99393.55;;;17.23;70.64
65394;BME280;52002;49.760;6.512;2022-09-09T00:58:58;99391.78;;;17.26;70.60
65394;BME280;52002;49.760;6.512;2022-09-09T01:01:21;99401.16;;;17.30;70.52
65394;BME280;52002;49.760;6.512;2022-09-09T01:03:52;99398.47;;;17.30;70.44
65394;BME280;52002;49.760;6.512;2022-09-09T01:06:34;99406.56;;;17.30;70.46
65394;BME280;52002;49.760;6.512;2022-09-09T01:14:48;99396.09;;;17.31;70.62
65394;BME280;52002;49.760;6.512;2022-09-09T01:17:35;99395.27;;;17.31;70.57
65394;BME280;52002;49.760;6.512;2022-09-09T01:28:55;99405.05;;;17.21;70.68
65394;BME280;52002;49.760;6.512;2022-09-09T01:31:39;99406.45;;;17.17;70.80
65394;BME280;52002;49.760;6.512;2022-09-09T01:34:12;99409.97;;;17.17;70.91
65394;BME280;52002;49.760;6.512;2022-09-09T01:39:35;99401.77;;;17.14;70.97
65394;BME280;52002;49.760;6.512;2022-09-09T01:42:03;99410.71;;;17.15;71.04
65394;BME280;52002;49.760;6.512;2022-09-09T01:44:31;99404.99;;;17.14;70.92
65394;BME280;52002;49.760;6.512;2022-09-09T01:46:58;99409.69;;;17.16;70.92
65394;BME280;52002;49.760;6.512;2022-09-09T01:49:24;99409.36;;;17.15;70.81
65394;BME280;52002;49.760;6.512;2022-09-09T01:51:53;99397.93;;;17.13;70.76
65394;BME280;52002;49.760;6.512;2022-09-09T01:54:22;99402.16;;;17.11;70.78
65394;BME280;52002;49.760;6.512;2022-09-09T01:56:59;99401.83;;;17.10;70.79
65394;BME280;52002;49.760;6.512;2022-09-09T01:59:48;99403.82;;;17.12;70.86
65394;BME280;52002;49.760;6.512;2022-09-09T02:02:26;99395.55;;;17.14;70.87
65394;BME280;52002;49.760;6.512;2022-09-09T02:05:16;99396.70;;;17.16;70.83
65394;BME280;52002;49.760;6.512;2022-09-09T02:08:11;99395.23;;;17.13;70.83
65394;BME280;52002;49.760;6.512;2022-09-09T02:10:46;99398.31;;;17.10;70.83
65394;BME280;52002;49.760;6.512;2022-09-09T02:13:17;99398.11;;;17.11;70.86
65394;BME280;52002;49.760;6.512;2022-09-09T02:16:00;99400.16;;;17.09;70.83
65394;BME280;52002;49.760;6.512;2022-09-09T02:19:03;99395.73;;;17.12;70.91
65394;BME280;52002;49.760;6.512;2022-09-09T02:21:34;99389.25;;;17.18;71.04
65394;BME280;52002;49.760;6.512;2022-09-09T02:24:04;99386.66;;;17.20;71.01
65394;BME280;52002;49.760;6.512;2022-09-09T02:26:37;99380.38;;;17.24;70.83
65394;BME280;52002;49.760;6.512;2022-09-09T02:29:15;99383.63;;;17.30;70.79
65394;BME280;52002;49.760;6.512;2022-09-09T02:31:41;99386.27;;;17.34;70.75
65394;BME280;52002;49.760;6.512;2022-09-09T02:34:10;99385.13;;;17.33;70.63
65394;BME280;52002;49.760;6.512;2022-09-09T02:36:40;99394.67;;;17.35;70.74
65394;BME280;52002;49.760;6.512;2022-09-09T02:39:09;99393.97;;;17.37;70.67
65394;BME280;52002;49.760;6.512;2022-09-09T02:41:39;99389.86;;;17.41;70.63
65394;BME280;52002;49.760;6.512;2022-09-09T02:44:14;99383.86;;;17.46;70.59
65394;BME280;52002;49.760;6.512;2022-09-09T02:49:57;99381.38;;;17.51;70.36
65394;BME280;52002;49.760;6.512;2022-09-09T02:52:27;99382.55;;;17.53;70.26
65394;BME280;52002;49.760;6.512;2022-09-09T02:55:12;99385.69;;;17.56;70.29
65394;BME280;52002;49.760;6.512;2022-09-09T02:57:40;99384.77;;;17.60;70.19
65394;BME280;52002;49.760;6.512;2022-09-09T03:00:09;99384.37;;;17.63;70.07
65394;BME280;52002;49.760;6.512;2022-09-09T03:02:36;99379.44;;;17.67;69.99
65394;BME280;52002;49.760;6.512;2022-09-09T03:05:05;99379.55;;;17.69;69.98
65394;BME280;52002;49.760;6.512;2022-09-09T03:07:32;99375.28;;;17.71;69.96
65394;BME280;52002;49.760;6.512;2022-09-09T03:09:58;99381.84;;;17.72;69.93
65394;BME280;52002;49.760;6.512;2022-09-09T03:12:24;99376.06;;;17.75;69.96
65394;BME280;52002;49.760;6.512;2022-09-09T03:14:50;99370.66;;;17.75;69.78
65394;BME280;52002;49.760;6.512;2022-09-09T03:17:16;99376.16;;;17.78;69.57
65394;BME280;52002;49.760;6.512;2022-09-09T03:19:42;99378.02;;;17.78;69.28
65394;BME280;52002;49.760;6.512;2022-09-09T03:22:10;99382.81;;;17.75;69.37
65394;BME280;52002;49.760;6.512;2022-09-09T03:24:36;99375.09;;;17.72;69.40
65394;BME280;52002;49.760;6.512;2022-09-09T03:27:02;99370.73;;;17.71;69.35
65394;BME280;52002;49.760;6.512;2022-09-09T03:29:28;99372.80;;;17.69;69.25
65394;BME280;52002;49.760;6.512;2022-09-09T03:31:54;99368.42;;;17.68;69.20
65394;BME280;52002;49.760;6.512;2022-09-09T03:34:20;99374.03;;;17.67;69.23
65394;BME280;52002;49.760;6.512;2022-09-09T03:36:46;99373.40;;;17.65;69.18
65394;BME280;52002;49.760;6.512;2022-09-09T03:39:13;99374.11;;;17.63;69.24
65394;BME280;52002;49.760;6.512;2022-09-09T03:41:39;99378.23;;;17.58;69.32
65394;BME280;52002;49.760;6.512;2022-09-09T03:44:05;99360.64;;;17.52;69.25
65394;BME280;52002;49.760;6.512;2022-09-09T03:46:31;99366.30;;;17.57;69.31
65394;BME280;52002;49.760;6.512;2022-09-09T03:48:57;99372.90;;;17.54;69.28
65394;BME280;52002;49.760;6.512;2022-09-09T03:51:23;99374.84;;;17.50;69.32
65394;BME280;52002;49.760;6.512;2022-09-09T03:53:49;99377.61;;;17.45;69.39
65394;BME280;52002;49.760;6.512;2022-09-09T03:56:15;99378.33;;;17.43;69.47
65394;BME280;52002;49.760;6.512;2022-09-09T03:58:41;99374.28;;;17.43;69.55
65394;BME280;52002;49.760;6.512;2022-09-09T04:01:12;99371.90;;;17.44;69.49
65394;BME280;52002;49.760;6.512;2022-09-09T04:03:39;99371.58;;;17.43;69.56
65394;BME280;52002;49.760;6.512;2022-09-09T04:06:07;99371.58;;;17.43;69.54
65394;BME280;52002;49.760;6.512;2022-09-09T04:08:35;99375.63;;;17.43;69.60
65394;BME280;52002;49.760;6.512;2022-09-09T04:11:03;99376.97;;;17.43;69.50
65394;BME280;52002;49.760;6.512;2022-09-09T04:13:30;99376.97;;;17.43;69.47
65394;BME280;52002;49.760;6.512;2022-09-09T04:15:58;99376.66;;;17.42;69.48
65394;BME280;52002;49.760;6.512;2022-09-09T04:18:25;99376.05;;;17.40;69.51
65394;BME280;52002;49.760;6.512;2022-09-09T04:20:54;99372.56;;;17.36;69.99
65394;BME280;52002;49.760;6.512;2022-09-09T04:23:23;99372.56;;;17.36;69.99
65394;BME280;52002;49.760;6.512;2022-09-09T04:25:52;99379.52;;;17.34;69.62
65394;BME280;52002;49.760;6.512;2022-09-09T04:28:21;99374.51;;;17.31;69.80
65394;BME280;52002;49.760;6.512;2022-09-09T04:30:48;99384.16;;;17.29;69.90
65394;BME280;52002;49.760;6.512;2022-09-09T04:33:14;99384.16;;;17.29;69.94
65394;BME280;52002;49.760;6.512;2022-09-09T04:35:47;99386.00;;;17.29;69.92
65394;BME280;52002;49.760;6.512;2022-09-09T04:38:15;99382.48;;;17.28;69.88
65394;BME280;52002;49.760;6.512;2022-09-09T04:40:48;99385.58;;;17.25;69.90
65394;BME280;52002;49.760;6.512;2022-09-09T04:43:17;99382.13;;;17.21;69.90
65394;BME280;52002;49.760;6.512;2022-09-09T04:45:49;99381.86;;;17.16;69.99
65394;BME280;52002;49.760;6.512;2022-09-09T04:48:18;99381.28;;;17.09;70.02
65394;BME280;52002;49.760;6.512;2022-09-09T04:51:01;99386.13;;;17.03;70.09
65394;BME280;52002;49.760;6.512;2022-09-09T04:53:24;99383.48;;;16.99;70.26
65394;BME280;52002;49.760;6.512;2022-09-09T04:56:02;99397.03;;;16.95;70.50
65394;BME280;52002;49.760;6.512;2022-09-09T04:58:30;99395.00;;;16.93;70.56
65394;BME280;52002;49.760;6.512;2022-09-09T05:01:07;99400.72;;;16.94;70.50
65394;BME280;52002;49.760;6.512;2022-09-09T05:03:36;99402.42;;;16.95;70.40
65394;BME280;52002;49.760;6.512;2022-09-09T05:06:05;99402.06;;;16.94;70.47
65394;BME280;52002;49.760;6.512;2022-09-09T05:08:39;99403.77;;;16.95;70.41
65394;BME280;52002;49.760;6.512;2022-09-09T05:11:18;99407.31;;;16.95;70.36
65394;BME280;52002;49.760;6.512;2022-09-09T05:13:47;99403.06;;;16.97;70.22
65394;BME280;52002;49.760;6.512;2022-09-09T05:16:13;99407.34;;;16.91;70.30
65394;BME280;52002;49.760;6.512;2022-09-09T05:18:40;99408.58;;;16.89;70.41
65394;BME280;52002;49.760;6.512;2022-09-09T05:21:09;99410.24;;;16.90;70.52
65394;BME280;52002;49.760;6.512;2022-09-09T05:23:36;99410.16;;;16.94;70.49
65394;BME280;52002;49.760;6.512;2022-09-09T05:26:03;99414.70;;;16.97;70.39
65394;BME280;52002;49.760;6.512;2022-09-09T05:28:30;99412.23;;;17.03;70.32
65394;BME280;52002;49.760;6.512;2022-09-09T05:31:05;99421.73;;;17.09;70.26
65394;BME280;52002;49.760;6.512;2022-09-09T05:33:35;99422.00;;;17.14;70.23
65394;BME280;52002;49.760;6.512;2022-09-09T05:36:04;99410.44;;;17.21;70.02
65394;BME280;52002;49.760;6.512;2022-09-09T05:38:32;99410.49;;;17.27;69.72
65394;BME280;52002;49.760;6.512;2022-09-09T05:40:59;99411.57;;;17.33;69.56
65394;BME280;52002;49.760;6.512;2022-09-09T05:43:26;99408.10;;;17.39;69.36
65394;BME280;52002;49.760;6.512;2022-09-09T05:46:04;99409.35;;;17.43;69.12
65394;BME280;52002;49.760;6.512;2022-09-09T05:48:35;99407.55;;;17.51;68.95
65394;BME280;52002;49.760;6.512;2022-09-09T05:51:03;99409.72;;;17.51;68.78
65394;BME280;52002;49.760;6.512;2022-09-09T05:53:32;99412.23;;;17.53;68.68
65394;BME280;52002;49.760;6.512;2022-09-09T05:56:16;99419.30;;;17.54;68.63
65394;BME280;52002;49.760;6.512;2022-09-09T05:58:41;99410.83;;;17.57;68.61
65394;BME280;52002;49.760;6.512;2022-09-09T06:01:16;99413.84;;;17.58;68.48
65394;BME280;52002;49.760;6.512;2022-09-09T06:03:45;99411.89;;;17.63;68.35
65394;BME280;52002;49.760;6.512;2022-09-09T06:06:14;99410.27;;;17.68;68.27
65394;BME280;52002;49.760;6.512;2022-09-09T06:08:42;99415.20;;;17.75;68.05
65394;BME280;52002;49.760;6.512;2022-09-09T06:11:15;99410.27;;;17.86;67.86
65394;BME280;52002;49.760;6.512;2022-09-09T06:13:40;99407.34;;;17.98;67.56
65394;BME280;52002;49.760;6.512;2022-09-09T06:16:11;99415.38;;;18.02;67.27
65394;BME280;52002;49.760;6.512;2022-09-09T06:18:40;99417.65;;;17.99;67.08
65394;BME280;52002;49.760;6.512;2022-09-09T06:21:09;99415.20;;;17.93;67.02
65394;BME280;52002;49.760;6.512;2022-09-09T06:23:44;99410.91;;;17.88;67.07
65394;BME280;52002;49.760;6.512;2022-09-09T06:26:16;99412.86;;;17.83;66.89
65394;BME280;52002;49.760;6.512;2022-09-09T06:28:45;99413.75;;;17.80;67.01
65394;BME280;52002;49.760;6.512;2022-09-09T06:31:14;99412.50;;;17.75;67.01
65394;BME280;52002;49.760;6.512;2022-09-09T06:33:43;99425.69;;;17.74;66.80
65394;BME280;52002;49.760;6.512;2022-09-09T06:36:27;99421.81;;;17.73;66.87
65394;BME280;52002;49.760;6.512;2022-09-09T06:38:55;99415.31;;;17.78;66.92
65394;BME280;52002;49.760;6.512;2022-09-09T06:41:24;99416.48;;;17.86;66.77
65394;BME280;52002;49.760;6.512;2022-09-09T06:43:54;99417.80;;;17.97;66.67
65394;BME280;52002;49.760;6.512;2022-09-09T06:46:29;99419.92;;;18.02;66.35
65394;BME280;52002;49.760;6.512;2022-09-09T06:48:53;99427.52;;;18.02;66.35
65394;BME280;52002;49.760;6.512;2022-09-09T06:51:30;99423.87;;;17.99;66.24
65394;BME280;52002;49.760;6.512;2022-09-09T06:53:57;99421.53;;;17.96;66.26
65394;BME280;52002;49.760;6.512;2022-09-09T06:56:30;99428.06;;;17.91;66.27
65394;BME280;52002;49.760;6.512;2022-09-09T06:58:59;99431.34;;;17.86;66.38
65394;BME280;52002;49.760;6.512;2022-09-09T07:01:35;99425.05;;;17.90;66.44
65394;BME280;52002;49.760;6.512;2022-09-09T07:04:03;99418.16;;;17.87;66.15
65394;BME280;52002;49.760;6.512;2022-09-09T07:06:34;99429.87;;;17.84;66.09
65394;BME280;52002;49.760;6.512;2022-09-09T07:09:06;99438.30;;;17.85;65.90
65394;BME280;52002;49.760;6.512;2022-09-09T07:11:40;99438.41;;;17.98;65.71
65394;BME280;52002;49.760;6.512;2022-09-09T07:14:08;99440.42;;;18.07;65.58
65394;BME280;52002;49.760;6.512;2022-09-09T07:16:35;99441.62;;;18.15;65.31
65394;BME280;52002;49.760;6.512;2022-09-09T07:19:03;99442.69;;;18.21;65.11
65394;BME280;52002;49.760;6.512;2022-09-09T07:21:30;99437.84;;;18.27;64.97
65394;BME280;52002;49.760;6.512;2022-09-09T07:23:57;99444.63;;;18.34;64.84
65394;BME280;52002;49.760;6.512;2022-09-09T07:26:26;99447.67;;;18.42;64.57
65394;BME280;52002;49.760;6.512;2022-09-09T07:28:54;99444.64;;;18.41;64.23
65394;BME280;52002;49.760;6.512;2022-09-09T07:31:28;99443.77;;;18.33;63.92
65394;BME280;52002;49.760;6.512;2022-09-09T07:33:59;99447.58;;;18.28;64.00
65394;BME280;52002;49.760;6.512;2022-09-09T07:36:28;99444.98;;;18.24;64.05
65394;BME280;52002;49.760;6.512;2022-09-09T07:39:03;99446.02;;;18.23;64.00
65394;BME280;52002;49.760;6.512;2022-09-09T07:41:31;99446.73;;;18.21;63.63
65394;BME280;52002;49.760;6.512;2022-09-09T07:44:06;99446.73;;;18.21;63.56
65394;BME280;52002;49.760;6.512;2022-09-09T07:46:34;99448.02;;;18.25;63.40
65394;BME280;52002;49.760;6.512;2022-09-09T07:49:01;99450.39;;;18.24;63.46
65394;BME280;52002;49.760;6.512;2022-09-09T07:51:32;99449.36;;;18.25;63.34
65394;BME280;52002;49.760;6.512;2022-09-09T07:54:02;99447.11;;;18.35;63.16
65394;BME280;52002;49.760;6.512;2022-09-09T07:56:30;99444.85;;;18.46;62.97
65394;BME280;52002;49.760;6.512;2022-09-09T07:58:57;99452.08;;;18.56;62.51
65394;BME280;52002;49.760;6.512;2022-09-09T08:01:29;99451.38;;;18.65;62.33
65394;BME280;52002;49.760;6.512;2022-09-09T08:04:03;99444.64;;;18.72;62.19
65394;BME280;52002;49.760;6.512;2022-09-09T08:06:34;99452.46;;;18.84;61.99
65394;BME280;52002;49.760;6.512;2022-09-09T08:09:01;99453.80;;;18.77;61.55
65394;BME280;52002;49.760;6.512;2022-09-09T08:11:29;99443.92;;;18.74;61.74
65394;BME280;52002;49.760;6.512;2022-09-09T08:13:56;99451.11;;;18.84;61.50
65394;BME280;52002;49.760;6.512;2022-09-09T08:16:24;99448.55;;;18.93;61.16
65394;BME280;52002;49.760;6.512;2022-09-09T08:18:53;99452.73;;;19.03;61.03
65394;BME280;52002;49.760;6.512;2022-09-09T08:21:25;99450.84;;;18.96;60.86
65394;BME280;52002;49.760;6.512;2022-09-09T08:23:54;99454.12;;;18.78;61.12
65394;BME280;52002;49.760;6.512;2022-09-09T08:26:24;99453.55;;;18.65;61.53
65394;BME280;52002;49.760;6.512;2022-09-09T08:28:56;99454.10;;;18.72;61.86
65394;BME280;52002;49.760;6.512;2022-09-09T08:31:32;99455.66;;;19.01;61.88
65394;BME280;52002;49.760;6.512;2022-09-09T08:34:03;99462.26;;;19.30;61.61
65394;BME280;52002;49.760;6.512;2022-09-09T08:36:32;99454.43;;;19.64;60.60
65394;BME280;52002;49.760;6.512;2022-09-09T08:39:00;99452.44;;;19.96;59.85
65394;BME280;52002;49.760;6.512;2022-09-09T08:47:40;99447.75;;;20.30;58.10
65394;BME280;52002;49.760;6.512;2022-09-09T08:50:32;99447.24;;;20.24;58.02
65394;BME280;52002;49.760;6.512;2022-09-09T08:53:16;99450.58;;;20.26;58.01
65394;BME280;52002;49.760;6.512;2022-09-09T08:55:52;99447.45;;;20.29;57.75
65394;BME280;52002;49.760;6.512;2022-09-09T08:58:19;99461.78;;;20.13;57.92
65394;BME280;52002;49.760;6.512;2022-09-09T09:06:45;99461.48;;;19.99;57.77
65394;BME280;52002;49.760;6.512;2022-09-09T09:12:18;99468.17;;;19.76;58.49
65394;BME280;52002;49.760;6.512;2022-09-09T09:14:47;99477.53;;;19.67;58.72
65394;BME280;52002;49.760;6.512;2022-09-09T09:17:17;99467.97;;;19.58;58.71
65394;BME280;52002;49.760;6.512;2022-09-09T09:19:46;99465.38;;;19.47;59.07
65394;BME280;52002;49.760;6.512;2022-09-09T09:22:36;99469.63;;;19.32;59.22
65394;BME280;52002;49.760;6.512;2022-09-09T09:25:08;99470.34;;;19.23;59.44
65394;BME280;52002;49.760;6.512;2022-09-09T09:30:42;99474.70;;;19.10;60.15
65394;BME280;52002;49.760;6.512;2022-09-09T09:36:19;99469.60;;;19.05;59.84
65394;BME280;52002;49.760;6.512;2022-09-09T09:38:57;99468.89;;;19.20;59.78
65394;BME280;52002;49.760;6.512;2022-09-09T09:41:38;99463.80;;;19.48;59.64
65394;BME280;52002;49.760;6.512;2022-09-09T09:44:05;99470.27;;;19.61;59.77
65394;BME280;52002;49.760;6.512;2022-09-09T09:46:34;99482.33;;;19.65;59.54
65394;BME280;52002;49.760;6.512;2022-09-09T09:49:02;99465.27;;;19.58;59.25
65394;BME280;52002;49.760;6.512;2022-09-09T09:51:32;99473.48;;;19.53;58.65
65394;BME280;52002;49.760;6.512;2022-09-09T09:54:22;99461.71;;;19.57;59.05
65394;BME280;52002;49.760;6.512;2022-09-09T09:57:13;99466.50;;;19.75;58.24
65394;BME280;52002;49.760;6.512;2022-09-09T09:59:41;99458.37;;;19.95;57.55
65394;BME280;52002;49.760;6.512;2022-09-09T10:02:21;99463.64;;;20.13;57.43
65394;BME280;52002;49.760;6.512;2022-09-09T10:04:45;99455.27;;;20.28;56.31
65394;BME280;52002;49.760;6.512;2022-09-09T10:07:15;99457.38;;;20.49;56.08
65394;BME280;52002;49.760;6.512;2022-09-09T10:09:42;99454.67;;;20.49;55.53
65394;BME280;52002;49.760;6.512;2022-09-09T10:21:03;99446.67;;;21.31;52.95
65394;BME280;52002;49.760;6.512;2022-09-09T10:26:58;99455.27;;;21.37;52.18
65394;BME280;52002;49.760;6.512;2022-09-09T10:32:31;99445.17;;;21.86;51.04
65394;BME280;52002;49.760;6.512;2022-09-09T10:55:33;99433.11;;;22.99;47.07
65394;BME280;52002;49.760;6.512;2022-09-09T10:57:59;99437.11;;;22.75;47.02
65394;BME280;52002;49.760;6.512;2022-09-09T11:00:40;99433.03;;;22.45;47.32
65394;BME280;52002;49.760;6.512;2022-09-09T11:03:16;99423.89;;;22.20;47.62
65394;BME280;52002;49.760;6.512;2022-09-09T11:05:59;99422.97;;;22.08;48.22
65394;BME280;52002;49.760;6.512;2022-09-09T11:08:29;99433.39;;;22.11;48.11
65394;BME280;52002;49.760;6.512;2022-09-09T11:11:09;99426.59;;;21.92;48.17
65394;BME280;52002;49.760;6.512;2022-09-09T11:22:06;99413.27;;;22.40;48.00
65394;BME280;52002;49.760;6.512;2022-09-09T11:39:35;99403.20;;;22.19;47.35
65394;BME280;52002;49.760;6.512;2022-09-09T11:42:22;99412.42;;;22.00;47.66
65394;BME280;52002;49.760;6.512;2022-09-09T11:44:49;99416.94;;;21.96;49.04
65394;BME280;52002;49.760;6.512;2022-09-09T11:47:27;99415.42;;;22.10;49.53
65394;BME280;52002;49.760;6.512;2022-09-09T11:52:47;99417.39;;;22.12;48.95
65394;BME280;52002;49.760;6.512;2022-09-09T11:55:31;99409.98;;;21.91;49.46
65394;BME280;52002;49.760;6.512;2022-09-09T11:58:15;99407.79;;;21.81;49.72
65394;BME280;52002;49.760;6.512;2022-09-09T12:00:44;99404.02;;;21.82;48.79
65394;BME280;52002;49.760;6.512;2022-09-09T12:03:47;99402.14;;;21.92;48.61
65394;BME280;52002;49.760;6.512;2022-09-09T12:06:32;99398.29;;;22.00;48.76
65394;BME280;52002;49.760;6.512;2022-09-09T12:09:54;99407.59;;;22.02;48.73
65394;BME280;52002;49.760;6.512;2022-09-09T12:12:05;99402.67;;;22.01;48.44
65394;BME280;52002;49.760;6.512;2022-09-09T12:14:54;99403.19;;;22.10;48.52
65394;BME280;52002;49.760;6.512;2022-09-09T12:17:23;99402.58;;;22.36;48.14
65394;BME280;52002;49.760;6.512;2022-09-09T12:20:15;99396.05;;;22.55;47.72
65394;BME280;52002;49.760;6.512;2022-09-09T12:31:04;99398.81;;;23.31;45.95
65394;BME280;52002;49.760;6.512;2022-09-09T12:33:36;99398.17;;;23.38;45.79
65394;BME280;52002;49.760;6.512;2022-09-09T12:36:14;99403.38;;;23.52;45.37
65394;BME280;52002;49.760;6.512;2022-09-09T12:38:43;99400.53;;;23.58;45.26
65394;BME280;52002;49.760;6.512;2022-09-09T12:41:22;99403.21;;;23.56;45.23
65394;BME280;52002;49.760;6.512;2022-09-09T12:43:50;99400.58;;;23.61;45.27
65394;BME280;52002;49.760;6.512;2022-09-09T12:49:37;99387.38;;;23.67;45.12
65394;BME280;52002;49.760;6.512;2022-09-09T12:52:07;99381.30;;;23.62;45.40
65394;BME280;52002;49.760;6.512;2022-09-09T12:54:48;99368.22;;;24.00;45.38
65394;BME280;52002;49.760;6.512;2022-09-09T12:57:16;99362.78;;;24.44;44.47
65394;BME280;52002;49.760;6.512;2022-09-09T12:59:43;99363.55;;;24.27;44.23
65394;BME280;52002;49.760;6.512;2022-09-09T13:02:19;99370.51;;;24.06;44.63
65394;BME280;52002;49.760;6.512;2022-09-09T13:04:47;99369.95;;;23.80;44.55
65394;BME280;52002;49.760;6.512;2022-09-09T13:07:15;99366.73;;;23.83;44.62
65394;BME280;52002;49.760;6.512;2022-09-09T13:09:45;99356.32;;;24.47;43.82
65394;BME280;52002;49.760;6.512;2022-09-09T13:12:15;99356.89;;;24.64;43.01
65394;BME280;52002;49.760;6.512;2022-09-09T13:14:47;99357.20;;;24.50;42.78
65394;BME280;52002;49.760;6.512;2022-09-09T13:17:24;99365.77;;;24.42;43.14
65394;BME280;52002;49.760;6.512;2022-09-09T13:19:54;99358.32;;;24.23;43.15
65394;BME280;52002;49.760;6.512;2022-09-09T13:27:40;99358.61;;;23.36;44.49
65394;BME280;52002;49.760;6.512;2022-09-09T13:30:26;99346.82;;;23.44;45.12
65394;BME280;52002;49.760;6.512;2022-09-09T13:35:55;99364.95;;;23.51;45.61
65394;BME280;52002;49.760;6.512;2022-09-09T13:38:23;99380.51;;;23.29;46.22
65394;BME280;52002;49.760;6.512;2022-09-09T13:40:59;99386.63;;;23.12;45.73
65394;BME280;52002;49.760;6.512;2022-09-09T13:43:44;99390.48;;;22.93;45.49
65394;BME280;52002;49.760;6.512;2022-09-09T13:46:31;99391.45;;;22.77;45.72
65394;BME280;52002;49.760;6.512;2022-09-09T13:51:43;99384.45;;;22.29;46.50
65394;BME280;52002;49.760;6.512;2022-09-09T13:54:13;99415.42;;;21.91;47.16
65394;BME280;52002;49.760;6.512;2022-09-09T13:56:41;99439.65;;;21.58;49.89
65394;BME280;52002;49.760;6.512;2022-09-09T13:59:17;99450.75;;;21.15;51.77
65394;BME280;52002;49.760;6.512;2022-09-09T14:01:49;99448.79;;;20.52;55.25
65394;BME280;52002;49.760;6.512;2022-09-09T14:04:17;99459.39;;;20.01;56.56
65394;BME280;52002;49.760;6.512;2022-09-09T14:06:46;99447.44;;;19.66;56.04
65394;BME280;52002;49.760;6.512;2022-09-09T14:09:14;99461.31;;;19.40;56.83
65394;BME280;52002;49.760;6.512;2022-09-09T14:11:43;99464.92;;;19.16;57.26
65394;BME280;52002;49.760;6.512;2022-09-09T14:14:12;99465.63;;;19.01;58.14
65394;BME280;52002;49.760;6.512;2022-09-09T14:16:38;99459.03;;;18.86;58.40
65394;BME280;52002;49.760;6.512;2022-09-09T14:19:04;99457.63;;;18.72;58.68
65394;BME280;52002;49.760;6.512;2022-09-09T14:21:30;99456.66;;;18.62;59.66
65394;BME280;52002;49.760;6.512;2022-09-09T14:23:56;99461.23;;;18.55;59.87
65394;BME280;52002;49.760;6.512;2022-09-09T14:26:23;99465.46;;;18.54;60.05
65394;BME280;52002;49.760;6.512;2022-09-09T14:28:50;99464.01;;;18.51;60.60
65394;BME280;52002;49.760;6.512;2022-09-09T14:31:17;99459.64;;;18.50;60.94
65394;BME280;52002;49.760;6.512;2022-09-09T14:33:44;99461.30;;;18.51;61.24
65394;BME280;52002;49.760;6.512;2022-09-09T14:36:10;99456.53;;;18.53;61.19
65394;BME280;52002;49.760;6.512;2022-09-09T14:38:37;99452.40;;;18.57;61.14
65394;BME280;52002;49.760;6.512;2022-09-09T14:41:12;99454.91;;;18.65;61.33
65394;BME280;52002;49.760;6.512;2022-09-09T14:43:41;99453.17;;;18.75;61.28
65394;BME280;52002;49.760;6.512;2022-09-09T14:46:09;99449.35;;;18.87;61.32
65394;BME280;52002;49.760;6.512;2022-09-09T14:48:37;99445.66;;;19.02;61.16
65394;BME280;52002;49.760;6.512;2022-09-09T14:51:21;99451.40;;;19.23;60.95
65394;BME280;52002;49.760;6.512;2022-09-09T14:53:45;99450.39;;;19.44;60.42
65394;BME280;52002;49.760;6.512;2022-09-09T14:56:15;99445.34;;;19.75;60.38
65394;BME280;52002;49.760;6.512;2022-09-09T14:58:42;99445.42;;;20.04;59.65
65394;BME280;52002;49.760;6.512;2022-09-09T15:01:15;99449.22;;;20.26;59.28
65394;BME280;52002;49.760;6.512;2022-09-09T15:03:48;99448.73;;;20.42;58.71
65394;BME280;52002;49.760;6.512;2022-09-09T15:06:15;99447.01;;;20.55;58.40
65394;BME280;52002;49.760;6.512;2022-09-09T15:08:43;99447.08;;;20.64;58.31
65394;BME280;52002;49.760;6.512;2022-09-09T15:11:10;99441.93;;;20.72;58.47
65394;BME280;52002;49.760;6.512;2022-09-09T15:13:38;99442.88;;;20.91;58.90
65394;BME280;52002;49.760;6.512;2022-09-09T15:16:06;99445.32;;;21.31;58.51
65394;BME280;52002;49.760;6.512;2022-09-09T15:18:34;99441.40;;;21.96;57.45
65394;BME280;52002;49.760;6.512;2022-09-09T15:21:04;99447.14;;;21.97;56.87
65394;BME280;52002;49.760;6.512;2022-09-09T15:23:32;99445.69;;;21.86;57.07
65394;BME280;52002;49.760;6.512;2022-09-09T15:25:58;99453.13;;;21.62;56.64
65394;BME280;52002;49.760;6.512;2022-09-09T15:28:24;99441.27;;;21.41;56.84
65394;BME280;52002;49.760;6.512;2022-09-09T15:30:52;99445.70;;;21.19;57.14
65394;BME280;52002;49.760;6.512;2022-09-09T15:33:19;99441.83;;;20.92;57.50
65394;BME280;52002;49.760;6.512;2022-09-09T15:35:46;99442.75;;;20.56;58.02
65394;BME280;52002;49.760;6.512;2022-09-09T15:38:13;99450.16;;;20.29;58.74
65394;BME280;52002;49.760;6.512;2022-09-09T15:40:40;99447.72;;;20.07;59.50
65394;BME280;52002;49.760;6.512;2022-09-09T15:43:06;99459.01;;;19.91;60.17
65394;BME280;52002;49.760;6.512;2022-09-09T15:45:35;99452.42;;;19.76;60.78